Barranca, Peru
Current Conditions -  °F | °C
As of 2:00 PM on Saturday 25 Oct 2014 (Local Time) from SPIM Reporting Station
Overcast Overcast  
Wind Chill: 72°   Ceiling: 3000
Heat Index: 72°   Visibility: 6mi
Dew Point: 59°   Wind: 5mph
Humidity: 64%   Direction: NA
Pressure: 30"   Gusts: NA
Location:  10.74°S, 77.77°W
Report Text: SPIM 251900Z VRB04KT 9999 SCT014 OVC030 22/15 Q1016 NOSIG RMK BIRD HAZARD RWY 15 PP000
Loading
Personal Weather Stations






























Interactive Weather Map
Tropical Storm Tracking
New forecast layout! Learn more

10-Day Weather Forecast

Advertisements
Track Severe Weather on mobile